Report METAR

 

KSJC - San Jose, California, USA
Distance from station: NE 14km
Dati ricevuti: 17/06/2019 17:53
Parz. nuvoloso
Parz. nuvoloso
 Vento da NO
Vento: NO 20 km/h
Temperatura: 25°C
P.to Rugiada: 16°C
Umidità: 57%
Barometro: 1009.5 hPa
Nuvole: Parz. nuvoloso
Visibility: 16 km
Cloud details: Few Clouds 2134 m
Parz. nuvoloso 3353 m
2019/06/18 00:53 KSJC 180053Z 32011KT 10SM FEW070 SCT110 25/16 A2981 RMK AO2 SLP095 T02500156
KNUQ - Moffett Nas/Mtn, California, USA
Distance from station: N 14km
Dati ricevuti: 17/06/2019 16:56
Sereno
Sereno
 Vento da N
Vento: N 19 km/h
Temperatura: 24°C
P.to Rugiada: 14°C
Umidità: 54%
Barometro: 1009.8 hPa
Nuvole: Sereno
Visibility: 16 km
2019/06/17 23:56 KNUQ 172356Z 35010KT 10SM CLR 24/14 A2982 RMK AO2 SLP100 T02440144 10256 20217 56009
 
KPAO - Palo Alto, California, USA
Distance from station: NNO 23km
Dati ricevuti: 17/06/2019 16:47
Few Clouds
Few Clouds
 Vento da N
Vento: N 20 km/h
Temperatura: 22°C
P.to Rugiada: 16°C
Umidità: 69%
Barometro: 1009.8 hPa
Nuvole: Few Clouds
Visibility: 16 km
Cloud details: Few Clouds 3658 m
2019/06/17 23:47 KPAO 172347Z 35011KT 10SM FEW120 22/16 A2982
KRHV - San Jose/Reid, California, USA
Distance from station: ENE 19km
Dati ricevuti: 17/06/2019 17:50
Few Clouds
Few Clouds
 Vento da ONO
Vento: ONO 11 km/h
Temperatura: 28°C
Indice di Calore: 28°C
P.to Rugiada: 14°C
Umidità: 42%
Barometro: 1009.5 hPa
Nuvole: Few Clouds
Visibility: 16 km
Cloud details: Few Clouds 2134 m
2019/06/18 00:50 KRHV 180050Z 30006KT 10SM FEW070 28/14 A2981
 
KOAK - Oakland, California, USA
Distance from station: NNO 50km
Dati ricevuti: 17/06/2019 17:53
Parz. nuvoloso
Parz. nuvoloso
 Vento da ONO
Vento: ONO 24 km/h
Temperatura: 19°C
P.to Rugiada: 13°C
Umidità: 68%
Barometro: 1010.2 hPa
Nuvole: Parz. nuvoloso
Visibility: 16 km
Cloud details: Few Clouds 305 m
Few Clouds 914 m
Parz. nuvoloso 4267 m
2019/06/18 00:53 KOAK 180053Z 30013KT 10SM FEW010 FEW030 SCT140 19/13 A2983 RMK AO2 SLP101 T01890128
KSQL - San Carlos Airpo, California, USA
Distance from station: NO 34km
Dati ricevuti: 17/06/2019 17:53
Sereno
Sereno
 Vento da N
Vento: N 15 km/h
Temperatura: 22°C
P.to Rugiada: 14°C
Umidità: 61%
Barometro: 1010.2 hPa
Nuvole: Sereno
Visibility: 16 km
2019/06/18 00:53 KSQL 180053Z 35008KT 10SM SKC 22/14 A2983
 
KSFO - San Francisco, California, USA
Distance from station: NO 49km
Dati ricevuti: 17/06/2019 16:56
Parz. nuvoloso
Parz. nuvoloso
 Vento da ONO
Vento: ONO 28 km/h
Temperatura: 19°C
P.to Rugiada: 12°C
Umidità: 64%
Barometro: 1009.8 hPa
Nuvole: Parz. nuvoloso
Visibility: 16 km
Cloud details: Few Clouds 274 m
Parz. nuvoloso 5486 m
2019/06/17 23:56 KSFO 172356Z 30015KT 10SM FEW009 SCT180 19/12 A2982 RMK AO2 SLP097 T01940117 10244 20183 56011
KE16 - San Martin, California, USA
Distance from station: ESE 43km
Dati ricevuti: 30/05/2019 12:30
DATI Obsoleti

 Vento da SE
Vento: SE 9 km/h
Temperatura: 18°C
P.to Rugiada: 11°C
Umidità: 64%
Barometro: 1014.6 hPa
2019/05/30 19:30 KE16 301930Z AUTO 13005KT 18/11 A2996 RMK AO2 PWINO PNO
 
KWVI - Watsonville, California, USA
Distance from station: SSE 44km
Dati ricevuti: 17/06/2019 17:53
Sereno
Sereno
 Vento da OSO
Vento: OSO 11 km/h
Temperatura: 17°C
P.to Rugiada: 12°C
Umidità: 73%
Barometro: 1012.2 hPa
Nuvole: Sereno
Visibility: 16 km
2019/06/18 00:53 KWVI 180053Z AUTO 25006KT 10SM CLR 17/12 A2989 RMK AO2 SLP121 T01670117
KHAF - Half Moon Bay, California, USA
Distance from station: ONO 50km
Dati ricevuti: 17/06/2019 17:55
Coperto
Coperto
 Vento da S
Vento: S 17 km/h
Temperatura: 14°C
P.to Rugiada: 12°C
Umidità: 88%
Barometro: 1011.9 hPa
Nuvole: Coperto
Visibility: 14 km
Cloud details: Coperto 244 m
2019/06/18 00:55 KHAF 180055Z AUTO 17009KT 9SM OVC008 14/12 A2988 RMK AO2
 
KHWD - Hayward, California, USA
Distance from station: N 44km
Dati ricevuti: 17/06/2019 17:54
Sereno
Sereno
 Vento da ONO
Vento: ONO 17 km/h
Temperatura: 22°C
P.to Rugiada: 13°C
Umidità: 57%
Barometro: 1009.8 hPa
Nuvole: Sereno
Visibility: 16 km
2019/06/18 00:54 KHWD 180054Z 30009KT 10SM CLR 22/13 A2982 RMK AO2 SLP108 T02170128
KLVK - Livermore, California, USA
Distance from station: NNE 51km
Dati ricevuti: 17/06/2019 17:53
Sereno
Sereno
 Vento da ONO
Vento: ONO 20 km/h
Temperatura: 29°C
P.to Rugiada: 13°C
Umidità: 37%
Barometro: 1008.8 hPa
Nuvole: Sereno
Visibility: 16 km
2019/06/18 00:53 KLVK 180053Z 30011KT 10SM CLR 29/13 A2979 RMK AO2 SLP084 T02940133